Time;durP1;ratioP1;P1;durP2;ratioP2;P2;SDS_P1;SDS_P2;PMS_P1;PMS_P2;Temp;Humidity;BMP_temperature;BMP_pressure;BME280_temperature;BME280_humidity;BME280_pressure;Samples;Min_cycle;Max_cycle;Signal;HPM_P1;HPM_P2
2024/01/05 00:02:02;;;;;;;14.23;6.45;;;;;;;5.37;83.08;98245.81;5038643;28;20044;-46
2024/01/05 00:04:29;;;;;;;13.68;6.20;;;;;;;5.40;82.35;98242.34;5049537;28;20053;-47
2024/01/05 00:06:55;;;;;;;14.15;4.20;;;;;;;5.34;84.19;98237.31;5037030;28;20049;-45
2024/01/05 00:09:23;;;;;;;18.63;6.32;;;;;;;5.35;82.55;98242.41;5042512;28;20420;-47
2024/01/05 00:11:51;;;;;;;12.18;4.30;;;;;;;5.33;83.42;98244.16;5042840;28;20543;-45
2024/01/05 00:14:18;;;;;;;13.68;5.60;;;;;;;5.32;83.93;98237.31;5047919;28;20049;-51
2024/01/05 00:16:46;;;;;;;13.25;4.60;;;;;;;5.34;84.09;98243.28;5049564;28;20053;-48
2024/01/05 00:19:13;;;;;;;14.77;5.25;;;;;;;5.34;82.78;98245.84;5049113;28;20053;-47
2024/01/05 00:21:40;;;;;;;21.73;5.78;;;;;;;5.38;83.61;98241.53;5052400;28;20049;-55
2024/01/05 00:24:07;;;;;;;17.73;6.05;;;;;;;5.34;84.25;98245.84;5051707;28;20602;-50
2024/01/05 00:26:34;;;;;;;13.57;5.80;;;;;;;5.35;84.22;98247.56;5054476;28;20090;-46
2024/01/05 00:29:02;;;;;;;17.00;6.63;;;;;;;5.33;83.05;98249.28;5051717;28;20894;-45
2024/01/05 00:31:29;;;;;;;7.88;3.30;;;;;;;5.26;83.57;98252.78;5049841;28;20053;-43
2024/01/05 00:33:55;;;;;;;11.00;5.70;;;;;;;5.21;83.46;98259.69;5050940;28;20053;-42
2024/01/05 00:36:22;;;;;;;7.13;3.15;;;;;;;5.19;83.17;98248.56;5052463;28;20049;-48
2024/01/05 00:38:49;;;;;;;8.30;3.35;;;;;;;5.22;84.78;98251.09;5049838;28;20049;-48
2024/01/05 00:41:16;;;;;;;11.55;4.30;;;;;;;5.24;83.69;98246.81;5040663;28;20068;-47
2024/01/05 00:43:43;;;;;;;18.48;6.03;;;;;;;5.24;84.35;98254.53;5047365;28;20045;-48
2024/01/05 00:46:10;;;;;;;17.23;4.90;;;;;;;5.27;83.23;98255.31;5043734;28;20498;-46
2024/01/05 00:48:36;;;;;;;9.23;3.42;;;;;;;5.25;84.46;98253.66;5042404;28;20127;-41
2024/01/05 00:51:03;;;;;;;11.50;4.05;;;;;;;5.21;83.26;98254.53;5044133;28;20045;-44
2024/01/05 00:53:30;;;;;;;10.70;4.18;;;;;;;5.18;83.54;98254.56;5042949;28;20053;-49
2024/01/05 00:55:57;;;;;;;11.32;5.60;;;;;;;5.15;83.90;98260.59;5045878;28;20421;-41
2024/01/05 00:58:23;;;;;;;13.25;4.05;;;;;;;5.19;83.25;98253.69;5053611;28;20051;-47
2024/01/05 01:00:50;;;;;;;13.57;5.25;;;;;;;5.20;83.19;98263.13;5052566;28;20460;-49
2024/01/05 01:03:20;;;;;;;12.38;4.03;;;;;;;5.22;83.80;98256.22;5050259;28;20095;-41
2024/01/05 01:05:46;;;;;;;21.27;5.38;;;;;;;5.20;83.36;98257.97;5048852;28;20045;-47
2024/01/05 01:08:14;;;;;;;10.38;3.28;;;;;;;5.19;83.28;98256.25;5051861;28;20056;-47
2024/01/05 01:10:42;;;;;;;24.98;4.88;;;;;;;5.19;83.36;98261.38;5054417;28;20049;-48
2024/01/05 01:13:09;;;;;;;13.38;5.13;;;;;;;5.20;84.63;98263.13;5051617;28;20378;-46
2024/01/05 01:15:36;;;;;;;12.70;4.22;;;;;;;5.18;84.37;98255.44;5049456;28;20045;-46
2024/01/05 01:18:03;;;;;;;15.93;4.93;;;;;;;5.15;83.57;98252.88;5051048;28;20064;-48
2024/01/05 01:20:29;;;;;;;7.68;3.92;;;;;;;5.18;83.96;98254.56;5055217;28;20128;-52
2024/01/05 01:22:56;;;;;;;19.90;5.85;;;;;;;5.14;84.60;98259.72;5047897;28;20052;-44
2024/01/05 01:25:24;;;;;;;19.05;5.30;;;;;;;5.19;84.16;98266.53;5050849;28;20052;-42
2024/01/05 01:27:51;;;;;;;18.95;5.53;;;;;;;5.18;83.16;98265.69;5051835;28;20052;-48
2024/01/05 01:30:17;;;;;;;17.77;4.38;;;;;;;5.13;83.46;98262.31;5048667;28;20064;-43
2024/01/05 01:32:44;;;;;;;9.25;4.68;;;;;;;5.19;83.16;98261.38;5049233;28;20045;-45
2024/01/05 01:35:11;;;;;;;12.82;4.97;;;;;;;5.16;84.26;98264.00;5047119;28;20060;-49
2024/01/05 01:37:38;;;;;;;14.40;4.53;;;;;;;5.12;84.03;98271.75;5046804;28;20481;-49
2024/01/05 01:40:05;;;;;;;13.23;4.88;;;;;;;5.17;84.48;98268.28;5049818;28;20435;-53
2024/01/05 01:42:33;;;;;;;11.90;4.65;;;;;;;5.11;83.42;98269.19;5049630;28;20061;-42
2024/01/05 01:45:00;;;;;;;9.05;3.90;;;;;;;5.14;84.37;98270.00;5050498;28;20049;-43
2024/01/05 01:47:28;;;;;;;16.45;5.78;;;;;;;5.13;83.67;98276.00;5051114;28;20128;-42
2024/01/05 01:49:55;;;;;;;13.23;5.20;;;;;;;5.15;83.99;98275.97;5027951;28;20327;-48
2024/01/05 01:52:22;;;;;;;14.45;4.00;;;;;;;5.09;84.77;98276.88;5047696;28;20066;-47
2024/01/05 01:54:49;;;;;;;13.65;4.18;;;;;;;5.10;83.55;98278.59;5056449;28;20032;-46
2024/01/05 01:57:17;;;;;;;12.68;4.07;;;;;;;5.08;83.53;98284.59;5051291;28;20040;-45
2024/01/05 01:59:45;;;;;;;11.10;4.85;;;;;;;5.09;84.85;98281.16;5058269;28;20161;-44
2024/01/05 02:02:12;;;;;;;13.20;5.50;;;;;;;5.06;83.59;98284.59;5057603;28;20051;-46
2024/01/05 02:04:41;;;;;;;11.27;4.30;;;;;;;5.03;83.47;98282.06;5049865;28;20041;-46
2024/01/05 02:07:10;;;;;;;11.68;4.68;;;;;;;5.06;83.83;98283.78;5051498;28;20106;-44
2024/01/05 02:09:39;;;;;;;15.15;5.82;;;;;;;5.06;83.29;98292.31;5051663;28;20124;-52
2024/01/05 02:12:06;;;;;;;15.68;4.63;;;;;;;5.01;83.45;98294.91;5053305;28;20063;-49
2024/01/05 02:14:32;;;;;;;15.20;4.40;;;;;;;5.05;84.47;98298.31;5039688;28;20045;-45
2024/01/05 02:16:59;;;;;;;17.85;5.90;;;;;;;5.03;83.38;98292.34;5054440;28;20040;-52
2024/01/05 02:19:26;;;;;;;9.05;3.28;;;;;;;4.95;84.13;98294.13;5046160;28;20486;-42
2024/01/05 02:21:56;;;;;;;4.85;2.20;;;;;;;5.01;83.59;98294.06;5050849;28;20079;-44
2024/01/05 02:24:23;;;;;;;10.48;5.45;;;;;;;5.03;84.05;98301.75;5045224;28;20048;-45
2024/01/05 02:26:49;;;;;;;15.63;5.72;;;;;;;5.01;83.65;98299.22;5040107;28;20048;-47
2024/01/05 02:29:21;;;;;;;13.98;4.88;;;;;;;5.01;84.06;98304.34;5049326;28;20558;-43
2024/01/05 02:31:49;;;;;;;22.98;6.18;;;;;;;5.03;84.74;98305.16;5044123;28;20052;-47
2024/01/05 02:34:16;;;;;;;17.98;4.82;;;;;;;5.00;84.06;98308.59;5051069;28;20064;-50
2024/01/05 02:36:43;;;;;;;26.50;7.07;;;;;;;5.04;83.90;98309.44;5038306;28;20049;-50
2024/01/05 02:39:12;;;;;;;12.80;4.97;;;;;;;5.00;83.43;98307.78;5056127;28;20071;-41
2024/01/05 02:41:39;;;;;;;13.13;5.53;;;;;;;4.99;83.97;98309.47;5045497;28;20081;-49
2024/01/05 02:44:05;;;;;;;19.25;5.30;;;;;;;5.00;84.61;98313.75;5048330;28;20045;-44
2024/01/05 02:46:33;;;;;;;9.50;3.95;;;;;;;5.02;83.06;98311.16;5042668;28;20060;-41
2024/01/05 02:49:00;;;;;;;20.67;7.00;;;;;;;5.04;83.72;98319.72;5045210;28;20064;-46
2024/01/05 02:51:28;;;;;;;22.88;6.70;;;;;;;4.99;83.21;98321.44;5035228;28;20345;-43
2024/01/05 02:53:55;;;;;;;18.45;5.97;;;;;;;5.01;83.40;98328.25;5033728;28;20124;-48
2024/01/05 02:56:22;;;;;;;22.67;5.32;;;;;;;5.00;84.53;98328.31;5039797;28;20064;-49
2024/01/05 02:58:51;;;;;;;15.18;6.38;;;;;;;5.03;83.18;98322.28;5048591;28;20049;-45
2024/01/05 03:01:18;;;;;;;21.05;7.63;;;;;;;5.03;84.49;98323.13;5040182;28;20075;-49
2024/01/05 03:03:47;;;;;;;13.48;4.80;;;;;;;4.99;84.35;98321.44;5030997;28;20041;-48
2024/01/05 03:06:19;;;;;;;10.88;4.70;;;;;;;4.93;83.49;98332.59;5026329;28;20119;-47
2024/01/05 03:08:46;;;;;;;20.60;6.15;;;;;;;4.91;83.85;98323.22;5046702;28;20043;-44
2024/01/05 03:11:13;;;;;;;13.95;5.25;;;;;;;4.97;83.11;98329.16;5045955;28;20040;-48
2024/01/05 03:13:40;;;;;;;17.63;5.28;;;;;;;4.99;83.51;98332.56;5041012;28;20045;-48
2024/01/05 03:16:07;;;;;;;21.17;6.63;;;;;;;4.94;84.35;98334.34;5044366;28;20044;-47
2024/01/05 03:18:33;;;;;;;15.60;6.40;;;;;;;4.94;82.98;98333.47;5042651;28;20060;-43
2024/01/05 03:21:00;;;;;;;14.23;5.45;;;;;;;4.96;84.18;98332.59;5035460;28;20048;-44
2024/01/05 03:23:27;;;;;;;14.20;6.35;;;;;;;4.94;84.52;98338.59;5040964;28;20665;-42
2024/01/05 03:25:56;;;;;;;13.48;5.47;;;;;;;4.95;84.13;98335.16;5048970;28;20427;-49
2024/01/05 03:28:24;;;;;;;18.20;6.00;;;;;;;4.87;83.69;98336.06;5049386;28;20516;-44
2024/01/05 03:30:51;;;;;;;10.85;3.85;;;;;;;4.94;83.37;98343.72;5048231;28;20053;-43
2024/01/05 03:33:20;;;;;;;17.65;6.43;;;;;;;4.96;83.42;98337.72;5044011;28;20041;-47
2024/01/05 03:35:47;;;;;;;13.18;4.85;;;;;;;4.83;83.74;98339.53;5048364;28;20099;-45
2024/01/05 03:38:14;;;;;;;7.80;3.35;;;;;;;4.86;83.49;98342.06;5043250;28;20045;-50
2024/01/05 03:40:41;;;;;;;14.50;4.50;;;;;;;4.82;84.16;98340.38;5049131;28;20052;-44
2024/01/05 03:43:07;;;;;;;10.10;3.63;;;;;;;4.82;83.56;98330.13;5052951;28;20056;-48
2024/01/05 03:45:34;;;;;;;7.38;3.03;;;;;;;4.80;84.48;98331.84;5040942;28;20049;-41
2024/01/05 03:48:01;;;;;;;12.52;5.00;;;;;;;4.83;84.03;98336.97;5047135;28;20471;-46
2024/01/05 03:50:27;;;;;;;9.20;3.38;;;;;;;4.77;84.47;98339.59;5046832;28;20053;-44
2024/01/05 03:52:54;;;;;;;23.20;8.68;;;;;;;4.79;83.53;98334.44;5037940;28;20052;-47
2024/01/05 03:55:21;;;;;;;16.23;6.63;;;;;;;4.78;83.68;98337.84;5046556;28;20068;-49
2024/01/05 03:57:48;;;;;;;12.93;4.40;;;;;;;4.71;84.57;98337.03;5046842;28;20040;-42
2024/01/05 04:00:15;;;;;;;12.07;4.35;;;;;;;4.77;84.68;98337.00;5048620;28;20509;-47
2024/01/05 04:02:42;;;;;;;11.65;4.95;;;;;;;4.71;84.80;98342.16;5041984;28;20512;-43
2024/01/05 04:05:09;;;;;;;7.95;3.75;;;;;;;4.74;84.03;98337.03;5040230;28;20581;-44
2024/01/05 04:07:36;;;;;;;15.50;5.53;;;;;;;4.78;84.58;98332.72;5044222;28;20403;-48
2024/01/05 04:10:06;;;;;;;16.55;6.10;;;;;;;4.78;84.71;98338.72;5043296;28;20060;-45
2024/01/05 04:12:33;;;;;;;17.35;6.72;;;;;;;4.78;84.74;98338.72;5040038;28;20057;-47
2024/01/05 04:15:00;;;;;;;15.38;5.85;;;;;;;4.82;83.78;98345.53;5049781;28;20051;-54
2024/01/05 04:17:26;;;;;;;16.70;5.25;;;;;;;4.79;85.17;98342.97;5041534;28;20048;-51
2024/01/05 04:19:53;;;;;;;19.20;7.28;;;;;;;4.87;83.88;98342.94;5045528;28;20530;-46
2024/01/05 04:22:20;;;;;;;14.73;5.53;;;;;;;4.89;84.94;98347.19;5038627;28;20068;-44
2024/01/05 04:24:46;;;;;;;17.08;6.13;;;;;;;4.91;84.08;98348.88;5042902;28;20048;-48
2024/01/05 04:27:14;;;;;;;22.73;6.15;;;;;;;4.87;84.22;98346.34;5048033;28;20048;-43
2024/01/05 04:29:41;;;;;;;10.80;4.40;;;;;;;4.87;84.47;98354.03;5037671;28;20453;-43
2024/01/05 04:32:07;;;;;;;9.60;2.88;;;;;;;4.82;84.84;98350.66;5045573;28;20053;-50
2024/01/05 04:34:34;;;;;;;13.23;4.90;;;;;;;4.85;83.72;98350.63;5049784;28;20440;-43
2024/01/05 04:37:01;;;;;;;17.95;4.18;;;;;;;4.83;84.47;98362.59;5036257;28;20152;-45
2024/01/05 04:39:28;;;;;;;11.68;3.35;;;;;;;4.86;84.50;98362.59;5051081;28;20103;-45
2024/01/05 04:41:54;;;;;;;8.48;3.72;;;;;;;4.87;83.46;98374.56;5046842;28;20047;-48
2024/01/05 04:44:21;;;;;;;12.98;4.05;;;;;;;4.88;83.85;98376.28;5055741;28;20052;-48
2024/01/05 04:46:50;;;;;;;9.63;4.25;;;;;;;4.91;84.01;98375.41;5050663;28;20045;-50
2024/01/05 04:49:17;;;;;;;6.82;2.47;;;;;;;4.88;83.12;98371.16;5046792;28;20100;-47
2024/01/05 04:51:44;;;;;;;11.77;2.60;;;;;;;4.87;83.57;98374.56;5047096;28;20422;-48
2024/01/05 04:54:11;;;;;;;8.05;2.17;;;;;;;4.86;83.50;98389.94;5053887;28;20562;-47
2024/01/05 04:56:37;;;;;;;4.97;1.73;;;;;;;4.78;83.19;98384.88;5043949;28;20441;-43
2024/01/05 04:59:04;;;;;;;9.60;1.92;;;;;;;4.82;82.83;98380.56;5044947;28;20201;-47
2024/01/05 05:01:31;;;;;;;11.05;2.15;;;;;;;4.81;83.26;98390.00;5044101;28;20041;-46
2024/01/05 05:03:58;;;;;;;7.40;2.55;;;;;;;4.78;82.60;98384.88;5047920;28;20130;-47
2024/01/05 05:06:25;;;;;;;5.90;1.58;;;;;;;4.75;83.10;98395.16;5050934;28;20049;-46
2024/01/05 05:08:53;;;;;;;7.25;1.98;;;;;;;4.72;82.48;98395.16;5036544;28;20091;-43
2024/01/05 05:11:20;;;;;;;7.07;1.88;;;;;;;4.70;83.19;98391.78;5045638;28;20049;-48
2024/01/05 05:13:47;;;;;;;8.00;2.13;;;;;;;4.66;82.31;98393.50;5049225;28;20049;-48
2024/01/05 05:16:15;;;;;;;5.57;1.17;;;;;;;4.63;82.57;98396.94;5051076;28;20120;-47
2024/01/05 05:18:41;;;;;;;3.85;1.48;;;;;;;4.61;82.91;98397.78;5051909;28;20044;-46
2024/01/05 05:21:08;;;;;;;10.40;1.88;;;;;;;4.57;82.81;98401.25;5055217;28;20063;-51
2024/01/05 05:23:37;;;;;;;5.40;1.52;;;;;;;4.52;81.87;98396.13;5051495;28;20060;-45
2024/01/05 05:26:04;;;;;;;5.25;1.75;;;;;;;4.47;82.66;98397.88;5043747;28;20056;-42
2024/01/05 05:28:31;;;;;;;6.38;1.50;;;;;;;4.44;82.72;98400.44;5057208;28;20049;-43
2024/01/05 05:30:57;;;;;;;4.25;1.27;;;;;;;4.39;81.90;98402.19;5050695;28;20045;-45
2024/01/05 05:33:24;;;;;;;2.40;1.00;;;;;;;4.34;82.00;98404.75;5041606;28;20080;-50
2024/01/05 05:35:53;;;;;;;4.13;1.67;;;;;;;4.33;82.41;98414.13;5050024;28;20045;-42
2024/01/05 05:38:20;;;;;;;7.32;1.48;;;;;;;4.29;81.87;98411.63;5046953;28;20059;-47
2024/01/05 05:40:46;;;;;;;6.43;1.83;;;;;;;4.26;81.73;98415.06;5055473;28;20044;-41
2024/01/05 05:43:13;;;;;;;6.10;2.25;;;;;;;4.23;82.12;98412.50;5049795;28;20056;-48
2024/01/05 05:45:41;;;;;;;10.85;2.22;;;;;;;4.22;82.06;98426.16;5051238;28;20045;-44
2024/01/05 05:48:07;;;;;;;9.73;1.83;;;;;;;4.19;82.58;98432.13;5049352;28;20124;-46
2024/01/05 05:50:34;;;;;;;6.28;2.13;;;;;;;4.18;82.73;98433.00;5041741;28;20056;-45
2024/01/05 05:53:01;;;;;;;9.07;1.92;;;;;;;4.16;82.04;98439.00;5046870;28;20049;-43
2024/01/05 05:55:27;;;;;;;7.15;1.88;;;;;;;4.16;81.95;98441.56;5047389;28;20041;-48
2024/01/05 05:57:57;;;;;;;7.00;2.45;;;;;;;4.15;82.43;98439.84;5046542;28;20053;-44
2024/01/05 06:00:26;;;;;;;5.97;2.20;;;;;;;4.12;82.70;98440.69;5047794;28;20064;-45
2024/01/05 06:02:52;;;;;;;7.68;2.53;;;;;;;4.09;81.90;98441.56;5051198;28;20037;-45
2024/01/05 06:05:19;;;;;;;10.27;2.88;;;;;;;4.09;82.45;98451.81;5055828;28;20057;-40
2024/01/05 06:07:47;;;;;;;7.78;2.25;;;;;;;4.10;81.98;98456.09;5053114;28;20480;-42
2024/01/05 06:10:14;;;;;;;5.97;2.20;;;;;;;4.09;82.84;98451.81;5044972;28;20167;-46
2024/01/05 06:12:40;;;;;;;3.25;1.48;;;;;;;4.12;82.83;98458.63;5045738;28;20048;-43
2024/01/05 06:15:07;;;;;;;12.30;3.20;;;;;;;4.15;82.71;98450.09;5049060;28;20036;-46
2024/01/05 06:17:34;;;;;;;8.90;2.80;;;;;;;4.19;82.38;98459.50;5050372;28;20122;-45
2024/01/05 06:20:01;;;;;;;9.65;2.85;;;;;;;4.22;82.50;98451.81;5046567;28;20072;-43
2024/01/05 06:22:27;;;;;;;7.78;3.65;;;;;;;4.23;82.84;98456.06;5053768;28;20064;-46
2024/01/05 06:24:56;;;;;;;6.28;2.03;;;;;;;4.26;82.35;98456.06;5040317;28;20071;-44
2024/01/05 06:27:22;;;;;;;9.10;2.83;;;;;;;4.25;82.08;98459.47;5048207;28;20053;-44
2024/01/05 06:30:01;;;;;;;9.52;3.45;;;;;;;4.27;82.16;98460.31;5045270;28;20148;-48
2024/01/05 06:32:28;;;;;;;8.27;2.40;;;;;;;4.26;82.66;98474.00;5046835;28;20513;-47
2024/01/05 06:34:54;;;;;;;8.63;2.25;;;;;;;4.25;82.69;98477.41;5048633;28;20106;-49
2024/01/05 06:37:21;;;;;;;7.60;3.72;;;;;;;4.26;82.27;98485.94;5047951;28;20046;-43
2024/01/05 06:39:48;;;;;;;9.38;3.05;;;;;;;4.26;82.34;98484.25;5043896;28;20044;-48
2024/01/05 06:42:15;;;;;;;8.30;3.35;;;;;;;4.27;82.49;98485.94;5044174;28;20060;-46
2024/01/05 06:44:41;;;;;;;6.13;2.55;;;;;;;4.29;82.82;98489.34;5043710;28;20045;-51
2024/01/05 06:47:08;;;;;;;7.22;2.15;;;;;;;4.29;82.31;98491.91;5038652;28;20049;-46
2024/01/05 06:49:34;;;;;;;12.23;3.22;;;;;;;4.31;81.61;98497.91;5048501;28;20057;-49
2024/01/05 06:52:01;;;;;;;12.38;3.53;;;;;;;4.34;82.15;98494.47;5037130;28;20491;-52
2024/01/05 06:54:28;;;;;;;11.52;3.20;;;;;;;4.35;82.13;98504.72;5052225;28;20056;-46
2024/01/05 06:56:55;;;;;;;12.88;4.10;;;;;;;4.37;82.43;98509.84;5046973;28;20057;-47
2024/01/05 06:59:24;;;;;;;13.90;3.47;;;;;;;4.36;82.20;98514.13;5047050;28;20124;-45
2024/01/05 07:01:51;;;;;;;9.40;3.80;;;;;;;4.34;82.50;98520.09;5046465;28;20478;-50
2024/01/05 07:04:17;;;;;;;8.38;4.22;;;;;;;4.36;82.32;98516.69;5045762;28;20048;-45
2024/01/05 07:06:44;;;;;;;8.38;2.35;;;;;;;4.35;82.07;98525.22;5041787;28;20088;-45
2024/01/05 07:09:12;;;;;;;13.95;4.45;;;;;;;4.34;82.46;98528.66;5043650;28;20049;-47
2024/01/05 07:11:38;;;;;;;10.27;4.20;;;;;;;4.33;81.87;98537.19;5041379;28;20052;-48
2024/01/05 07:14:05;;;;;;;5.25;3.10;;;;;;;4.31;81.93;98538.91;5042483;28;20096;-52
2024/01/05 07:16:32;;;;;;;15.23;3.72;;;;;;;4.32;81.77;98540.63;5045867;28;20568;-50
2024/01/05 07:18:59;;;;;;;13.07;4.50;;;;;;;4.28;82.20;98532.91;5047592;28;20055;-50
2024/01/05 07:21:26;;;;;;;13.63;3.60;;;;;;;4.27;81.71;98547.47;5052367;28;20053;-48
2024/01/05 07:23:53;;;;;;;11.38;4.13;;;;;;;4.22;81.77;98549.19;5043934;28;20099;-50
2024/01/05 07:26:23;;;;;;;13.90;4.90;;;;;;;4.23;81.95;98550.88;5036958;28;20125;-46
2024/01/05 07:28:50;;;;;;;13.80;4.90;;;;;;;4.20;82.28;98556.88;5031171;28;20071;-49
2024/01/05 07:31:24;;;;;;;20.15;5.97;;;;;;;4.18;81.96;98558.56;5044499;28;20124;-46
2024/01/05 07:33:51;;;;;;;16.02;5.93;;;;;;;4.14;81.79;98561.13;5044715;28;20044;-48
2024/01/05 07:36:18;;;;;;;7.47;3.70;;;;;;;4.13;82.12;98554.31;5043962;28;20053;-47
2024/01/05 07:38:46;;;;;;;9.85;3.58;;;;;;;4.11;82.50;98556.88;5049638;28;20081;-46
2024/01/05 07:41:17;;;;;;;16.67;5.68;;;;;;;4.08;82.47;98562.84;5051532;28;20132;-43
2024/01/05 07:43:44;;;;;;;11.40;4.03;;;;;;;4.00;83.10;98564.56;5045846;28;20045;-48
2024/01/05 07:46:12;;;;;;;12.43;3.80;;;;;;;4.02;82.85;98573.09;5044768;28;20127;-45
2024/01/05 07:48:40;;;;;;;9.90;4.85;;;;;;;4.03;83.44;98592.75;5044915;28;20041;-51
2024/01/05 07:51:08;;;;;;;11.90;4.40;;;;;;;4.08;82.67;98593.59;5046910;28;20052;-49
2024/01/05 07:53:35;;;;;;;9.95;3.75;;;;;;;4.06;83.08;98597.84;5039793;28;20111;-46
2024/01/05 07:56:02;;;;;;;15.88;5.47;;;;;;;4.10;82.74;98612.41;5047468;28;20370;-47
2024/01/05 07:58:29;;;;;;;10.60;4.32;;;;;;;4.03;82.95;98605.56;5046990;28;20144;-43
2024/01/05 08:00:57;;;;;;;13.25;4.50;;;;;;;4.10;82.51;98621.78;5044759;28;20060;-48
2024/01/05 08:03:24;;;;;;;18.33;5.72;;;;;;;4.11;82.53;98624.34;5022076;28;20045;-48
2024/01/05 08:05:51;;;;;;;15.80;4.75;;;;;;;4.14;82.46;98627.75;5043993;28;20416;-48
2024/01/05 08:08:18;;;;;;;14.52;5.13;;;;;;;4.16;83.22;98626.06;5053859;28;20128;-49
2024/01/05 08:10:46;;;;;;;14.55;6.25;;;;;;;4.17;83.24;98623.50;5045647;28;20057;-42
2024/01/05 08:13:13;;;;;;;15.27;6.55;;;;;;;4.19;82.87;98626.06;5049007;28;20053;-42
2024/01/05 08:15:40;;;;;;;15.63;6.15;;;;;;;4.19;82.64;98633.75;5043487;28;20045;-47
2024/01/05 08:18:08;;;;;;;17.98;5.50;;;;;;;4.23;82.59;98638.88;5038390;28;20053;-48
2024/01/05 08:20:35;;;;;;;16.13;5.38;;;;;;;4.22;82.96;98638.91;5041687;28;20108;-40
2024/01/05 08:23:01;;;;;;;15.93;5.68;;;;;;;4.22;83.18;98638.91;5043740;28;20057;-50
2024/01/05 08:25:28;;;;;;;16.05;5.00;;;;;;;4.23;83.18;98644.00;5041204;28;20049;-42
2024/01/05 08:27:55;;;;;;;17.52;5.75;;;;;;;4.24;82.92;98645.72;5048755;28;20056;-47
2024/01/05 08:30:22;;;;;;;17.00;5.22;;;;;;;4.26;82.54;98648.28;5051544;28;20160;-45
2024/01/05 08:32:54;;;;;;;15.88;5.55;;;;;;;4.28;82.77;98645.69;5046238;28;20045;-45
2024/01/05 08:35:25;;;;;;;16.48;6.03;;;;;;;4.31;82.47;98650.84;5050933;28;20413;-43
2024/01/05 08:37:51;;;;;;;18.25;6.32;;;;;;;4.32;83.02;98653.41;5048796;28;20049;-47
2024/01/05 08:40:18;;;;;;;15.52;5.10;;;;;;;4.33;82.68;98655.09;5042918;28;20386;-46
2024/01/05 08:42:45;;;;;;;15.20;6.28;;;;;;;4.36;82.62;98660.22;5038702;28;20048;-43
2024/01/05 08:45:16;;;;;;;16.00;6.15;;;;;;;4.39;83.13;98658.53;5042860;28;20100;-49
2024/01/05 08:47:43;;;;;;;18.90;6.40;;;;;;;4.41;83.39;98662.81;5042970;28;20146;-48
2024/01/05 08:50:10;;;;;;;16.45;5.15;;;;;;;4.42;82.13;98658.53;5041157;28;20135;-47
2024/01/05 08:52:37;;;;;;;14.48;4.38;;;;;;;4.44;82.24;98665.38;5041498;28;20088;-47
2024/01/05 08:55:04;;;;;;;17.17;5.45;;;;;;;4.49;83.14;98670.47;5046357;28;20041;-46
2024/01/05 08:57:31;;;;;;;19.08;6.63;;;;;;;4.50;82.87;98677.34;5050986;28;20452;-42
2024/01/05 08:59:58;;;;;;;17.10;5.40;;;;;;;4.51;83.27;98679.03;5050125;28;20128;-50
2024/01/05 09:02:26;;;;;;;13.10;5.18;;;;;;;4.55;83.28;98691.00;5058383;28;20045;-48
2024/01/05 09:04:54;;;;;;;12.40;5.20;;;;;;;4.57;82.88;98697.00;5053441;28;20049;-45
2024/01/05 09:07:21;;;;;;;14.48;5.22;;;;;;;4.60;83.10;98704.69;5043681;28;20072;-46
2024/01/05 09:09:49;;;;;;;19.83;5.63;;;;;;;4.62;82.92;98700.41;5045285;28;20056;-49
2024/01/05 09:12:16;;;;;;;17.67;7.13;;;;;;;4.65;83.26;98706.38;5045062;28;20052;-46
2024/01/05 09:14:43;;;;;;;13.18;6.10;;;;;;;4.66;82.63;98713.25;5048156;28;20045;-46
2024/01/05 09:17:09;;;;;;;14.43;4.13;;;;;;;4.69;82.96;98713.25;5050419;28;20047;-51
2024/01/05 09:19:36;;;;;;;14.40;5.40;;;;;;;4.71;83.16;98716.66;5055822;28;20060;-48
2024/01/05 09:22:03;;;;;;;13.68;5.15;;;;;;;4.74;83.44;98719.22;5046014;28;20044;-47
2024/01/05 09:24:29;;;;;;;15.43;6.55;;;;;;;4.77;82.73;98721.78;5046642;28;20061;-44
2024/01/05 09:26:56;;;;;;;12.27;5.43;;;;;;;4.78;83.52;98725.19;5043272;28;20080;-45
2024/01/05 09:29:23;;;;;;;15.60;6.00;;;;;;;4.80;83.51;98732.03;5041271;28;20080;-52
2024/01/05 09:31:51;;;;;;;18.80;5.70;;;;;;;4.83;83.41;98732.03;5047545;28;20057;-50
2024/01/05 09:34:18;;;;;;;16.23;6.43;;;;;;;4.86;82.90;98737.16;5020237;28;20061;-45
2024/01/05 09:36:46;;;;;;;16.10;7.22;;;;;;;4.89;83.21;98737.16;5046004;28;20098;-47
2024/01/05 09:39:13;;;;;;;15.02;5.13;;;;;;;4.92;82.43;98738.88;5054871;28;20067;-44
2024/01/05 09:41:42;;;;;;;16.08;6.13;;;;;;;4.95;83.73;98740.56;5042610;28;20057;-46
2024/01/05 09:44:11;;;;;;;14.18;5.47;;;;;;;4.98;82.68;98745.72;5052839;28;20052;-48
2024/01/05 09:46:39;;;;;;;14.63;5.63;;;;;;;5.00;83.22;98749.16;5035209;28;20041;-43
2024/01/05 09:49:07;;;;;;;16.88;7.13;;;;;;;5.04;82.38;98744.84;5032903;28;20053;-49
2024/01/05 09:51:35;;;;;;;17.13;6.03;;;;;;;5.04;83.00;98753.41;5034622;28;20122;-45
2024/01/05 09:54:02;;;;;;;17.73;6.43;;;;;;;5.06;82.18;98759.38;5037725;28;20102;-45
2024/01/05 09:56:30;;;;;;;16.55;6.90;;;;;;;5.08;82.70;98762.81;5037794;28;20503;-44
2024/01/05 09:58:57;;;;;;;22.25;5.05;;;;;;;5.12;83.23;98758.53;5042697;28;20119;-43
2024/01/05 10:01:26;;;;;;;14.48;6.28;;;;;;;5.13;82.74;98766.22;5042769;28;20413;-50
2024/01/05 10:03:58;;;;;;;14.45;5.57;;;;;;;5.20;83.25;98776.50;5039206;28;20461;-43
2024/01/05 10:06:25;;;;;;;14.38;5.05;;;;;;;5.25;83.33;98769.63;5021155;28;20041;-51
2024/01/05 10:08:54;;;;;;;21.55;5.72;;;;;;;5.28;81.94;98772.19;5039371;28;20044;-45
2024/01/05 10:14:06;;;;;;;20.30;8.48;;;;;;;5.33;83.29;98788.44;5034233;28;20390;-44
2024/01/05 10:16:39;;;;;;;11.75;6.88;;;;;;;5.35;82.20;98785.88;4970829;28;20050;-48
2024/01/05 10:19:19;;;;;;;20.83;8.57;;;;;;;5.35;83.52;98786.75;4977377;28;20489;-48
2024/01/05 10:21:47;;;;;;;16.70;6.60;;;;;;;5.39;82.93;98791.00;4972359;28;20065;-49
2024/01/05 10:27:07;;;;;;;16.65;5.35;;;;;;;5.47;82.31;98800.41;5036123;27;20397;-48
2024/01/05 10:29:37;;;;;;;15.60;5.97;;;;;;;5.53;83.20;98805.53;5019147;28;20049;-43
2024/01/05 10:32:15;;;;;;;26.23;8.45;;;;;;;5.61;81.82;98798.66;5010864;28;20057;-52
2024/01/05 10:34:45;;;;;;;15.73;5.53;;;;;;;5.65;83.36;98808.06;5009365;28;20129;-45
2024/01/05 10:37:14;;;;;;;17.17;7.13;;;;;;;5.72;81.52;98810.63;5002245;28;20050;-43
2024/01/05 10:39:48;;;;;;;18.33;6.93;;;;;;;5.79;82.44;98817.47;5021500;28;20120;-48
2024/01/05 10:44:57;;;;;;;14.95;6.25;;;;;;;5.86;82.99;98819.16;5039516;27;20408;-50
2024/01/05 10:47:26;;;;;;;15.93;5.80;;;;;;;5.88;81.66;98817.41;4987754;28;20050;-49
2024/01/05 10:49:55;;;;;;;18.45;6.65;;;;;;;5.92;82.66;98823.41;4983902;28;20491;-43
2024/01/05 10:52:27;;;;;;;18.58;5.10;;;;;;;5.97;82.56;98823.38;4984274;28;20149;-47
2024/01/05 10:54:55;;;;;;;20.63;5.88;;;;;;;5.98;82.64;98827.69;4981627;28;20054;-47
2024/01/05 10:57:23;;;;;;;19.00;6.15;;;;;;;6.01;81.65;98827.69;4990602;28;20141;-48
2024/01/05 10:59:54;;;;;;;18.13;5.38;;;;;;;6.01;82.96;98832.81;4992549;28;20053;-47
2024/01/05 11:02:29;;;;;;;14.50;5.68;;;;;;;6.02;82.10;98834.50;4989973;28;20073;-46
2024/01/05 11:05:02;;;;;;;18.40;7.22;;;;;;;6.03;81.98;98831.06;4981113;28;20050;-48
2024/01/05 11:07:32;;;;;;;7.72;4.15;;;;;;;6.03;82.87;98831.06;4982969;28;20101;-49
2024/01/05 11:19:01;;;;;;;14.07;6.38;;;;;;;6.16;81.10;98837.94;5015998;28;20396;-50
2024/01/05 11:24:22;;;;;;;19.33;7.78;;;;;;;6.22;81.05;98831.03;5039762;28;20453;-48
2024/01/05 11:26:48;;;;;;;15.30;7.28;;;;;;;6.25;81.73;98837.00;5001434;28;24418;-48
2024/01/05 11:29:51;;;;;;;18.13;6.78;;;;;;;6.27;81.06;98826.72;5002175;28;20057;-47
2024/01/05 11:32:42;;;;;;;16.42;6.70;;;;;;;6.29;82.06;98835.28;4994355;28;20051;-45
2024/01/05 11:37:53;;;;;;;12.85;4.65;;;;;;;6.35;82.25;98832.69;5069871;27;20383;-46
2024/01/05 11:40:28;;;;;;;20.27;7.25;;;;;;;6.39;81.65;98833.53;5025947;28;20441;-44
2024/01/05 11:42:57;;;;;;;12.68;4.07;;;;;;;6.39;82.10;98829.22;5029138;28;20053;-44
2024/01/05 11:51:12;;;;;;;11.40;4.88;;;;;;;6.45;80.83;98837.78;5062869;27;20397;-52
2024/01/05 11:53:40;;;;;;;21.92;7.97;;;;;;;6.49;80.36;98834.34;5051095;28;20135;-46
2024/01/05 11:56:07;;;;;;;18.38;6.25;;;;;;;6.56;80.19;98836.00;5065218;28;20064;-46
2024/01/05 11:58:36;;;;;;;14.70;6.03;;;;;;;6.59;81.36;98843.72;5062872;28;20052;-47
2024/01/05 12:01:08;;;;;;;18.70;5.82;;;;;;;6.57;81.32;98842.84;5036432;28;20050;-52
2024/01/05 12:03:40;;;;;;;15.10;6.05;;;;;;;6.56;81.34;98839.41;5040973;28;20096;-46
2024/01/05 12:06:10;;;;;;;20.90;6.78;;;;;;;6.58;81.64;98849.69;5033430;28;20399;-46
2024/01/05 12:08:38;;;;;;;19.85;6.55;;;;;;;6.56;79.99;98851.44;5047884;28;20046;-49